SKBQ/BAQ METAR and TAF weather

Enter ICAO airport designator
Station Type Date Time Source
SKBQ METAR 2019/12/11 12:00 UTC NOAA

SKBQ 111200Z 01006KT 9999 FEW012 SCT200 26/23 A2985 NOSIG


Station Type Date Time Source
SKBQ Decoded METAR 2019/12/11 12:00 UTC NOAA

Barranquilla / Ernestocortissoz, Colombia (SKBQ) 10-53N 074-47W 30M
Dec 11, 2019 - 07:00 AM EST / 2019.12.11 1200 UTC
Wind: from the N (010 degrees) at 7 MPH (6 KT):0
Visibility: greater than 7 mile(s):0
Sky conditions: partly cloudy
Temperature: 78 F (26 C)
Dew Point: 73 F (23 C)
Relative Humidity: 83%
Pressure (altimeter): 29.85 in. Hg (1010 hPa)
ob: SKBQ 111200Z 01006KT 9999 FEW012 SCT200 26/23 A2985 NOSIG
cycle: 12

Station Type Date Time Source
SKBQ TAF 2019/12/11 12:50 UTC NOAA

TAF SKBQ 111030Z 1112/1212 36010KT 9999 FEW015 TX33/1117Z TN25/1210Z

Example: see airport list